createdAt,value
2022-08-14T00:02:15.624Z,28.54
2022-08-14T00:04:44.891Z,28.64
2022-08-14T00:07:14.102Z,28.96
2022-08-14T00:09:56.373Z,28.73
2022-08-14T00:12:39.246Z,28.94
2022-08-14T00:15:10.216Z,28.50
2022-08-14T00:17:47.231Z,28.52
2022-08-14T00:20:23.788Z,29.24
2022-08-14T00:22:57.373Z,28.80
2022-08-14T00:25:30.735Z,29.40
2022-08-14T00:28:15.513Z,29.48
2022-08-14T00:30:47.348Z,29.24
2022-08-14T00:33:16.449Z,29.22
2022-08-14T00:36:37.372Z,29.50
2022-08-14T00:38:34.935Z,29.71
2022-08-14T00:41:06.157Z,29.87
2022-08-14T00:43:37.509Z,30.12
2022-08-14T00:46:32.811Z,29.93
2022-08-14T00:48:58.082Z,30.15
2022-08-14T00:51:36.817Z,30.00
2022-08-14T00:54:16.798Z,30.32
2022-08-14T00:56:55.052Z,30.59
2022-08-14T00:59:28.373Z,30.70
2022-08-14T01:01:59.091Z,30.63
2022-08-14T01:04:38.431Z,30.74
2022-08-14T01:07:21.450Z,30.67
2022-08-14T01:09:55.257Z,30.93
2022-08-14T01:12:27.358Z,30.78
2022-08-14T01:14:59.281Z,30.76
2022-08-14T01:17:49.589Z,30.55
2022-08-14T01:20:40.027Z,29.75
2022-08-14T01:23:16.843Z,29.57
2022-08-14T01:25:51.392Z,29.53
2022-08-14T01:28:46.980Z,29.18
2022-08-14T01:31:14.295Z,29.15
2022-08-14T01:34:07.446Z,29.27
2022-08-14T01:36:39.692Z,29.25
2022-08-14T01:39:13.395Z,28.87
2022-08-14T01:41:52.999Z,28.82
2022-08-14T01:44:33.393Z,28.12
2022-08-14T01:47:16.481Z,28.04
2022-08-14T01:49:59.726Z,28.22
2022-08-14T01:52:58.760Z,28.56
2022-08-14T01:55:30.483Z,28.27
2022-08-14T01:58:01.264Z,28.05
2022-08-14T02:00:47.873Z,27.85
2022-08-14T02:03:16.681Z,28.34
2022-08-14T02:05:44.100Z,27.64
2022-08-14T02:08:11.439Z,28.00
2022-08-14T02:10:46.723Z,28.01
2022-08-14T02:13:19.757Z,28.22
2022-08-14T02:15:48.479Z,28.17
2022-08-14T02:18:16.429Z,28.42
2022-08-14T02:20:47.513Z,28.62
2022-08-14T02:23:15.061Z,28.24
2022-08-14T02:25:44.182Z,28.60
2022-08-14T02:28:58.494Z,28.88
2022-08-14T02:31:10.751Z,28.48
2022-08-14T02:33:43.631Z,28.89
2022-08-14T02:37:03.902Z,28.47
2022-08-14T02:38:59.590Z,29.23
2022-08-14T02:41:28.804Z,28.90
2022-08-14T02:44:01.048Z,28.93
2022-08-14T02:46:32.416Z,29.67
2022-08-14T02:49:06.233Z,29.74
2022-08-14T02:51:36.757Z,29.90
2022-08-14T02:54:07.298Z,29.71
2022-08-14T02:57:16.681Z,29.58
2022-08-14T02:59:33.410Z,30.15
2022-08-14T03:02:03.078Z,29.88
2022-08-14T03:04:30.831Z,29.82
2022-08-14T03:07:07.434Z,29.95
2022-08-14T03:09:41.886Z,29.93
2022-08-14T03:12:31.001Z,29.88
2022-08-14T03:15:06.291Z,29.72
2022-08-14T03:17:41.028Z,29.86
2022-08-14T03:20:22.884Z,30.12
2022-08-14T03:22:51.503Z,29.70
2022-08-14T03:25:22.133Z,29.82
2022-08-14T03:27:58.704Z,29.55
2022-08-14T03:30:37.132Z,30.00
2022-08-14T03:33:10.324Z,29.53
2022-08-14T03:35:59.938Z,30.02
2022-08-14T03:39:14.043Z,29.88
2022-08-14T03:41:17.573Z,30.40
2022-08-14T03:43:45.544Z,30.19
2022-08-14T03:46:52.798Z,30.66
2022-08-14T03:49:02.981Z,30.14
2022-08-14T03:51:30.472Z,29.68
2022-08-14T03:53:59.557Z,30.27
2022-08-14T03:56:27.872Z,29.69
2022-08-14T03:58:57.238Z,30.22
2022-08-14T04:01:29.414Z,30.34
2022-08-14T04:04:07.791Z,30.36
2022-08-14T04:06:45.236Z,29.94
2022-08-14T04:09:15.100Z,30.63
2022-08-14T04:11:45.230Z,31.13
2022-08-14T04:14:16.471Z,30.64
2022-08-14T04:16:47.384Z,30.47
2022-08-14T04:19:18.849Z,30.95
2022-08-14T04:22:02.282Z,31.03
2022-08-14T04:24:38.196Z,31.29
2022-08-14T04:27:11.488Z,30.99
2022-08-14T04:29:42.414Z,31.42
2022-08-14T04:33:10.370Z,31.07
2022-08-14T04:34:58.558Z,31.26
2022-08-14T04:37:45.248Z,31.42
2022-08-14T04:40:32.618Z,31.70
2022-08-14T04:43:21.066Z,31.99
2022-08-14T04:45:50.993Z,31.78
2022-08-14T04:48:43.123Z,31.93
2022-08-14T04:51:12.433Z,31.68
2022-08-14T04:53:43.925Z,32.08
2022-08-14T04:56:30.616Z,31.78
2022-08-14T04:59:10.312Z,31.68
2022-08-14T05:01:45.118Z,31.72
2022-08-14T05:04:20.081Z,32.70
2022-08-14T05:06:49.609Z,32.53
2022-08-14T05:09:21.696Z,32.64
2022-08-14T05:11:51.556Z,32.59
2022-08-14T05:14:45.423Z,32.24
2022-08-14T05:17:12.125Z,32.62
2022-08-14T05:19:45.072Z,32.49
2022-08-14T05:22:27.348Z,32.18
2022-08-14T05:24:54.823Z,32.25
2022-08-14T05:27:23.972Z,32.67
2022-08-14T05:29:53.608Z,32.80
2022-08-14T05:32:23.588Z,32.80
2022-08-14T05:34:59.241Z,32.80
2022-08-14T05:37:29.547Z,32.79
2022-08-14T05:39:58.995Z,32.61
2022-08-14T05:42:29.163Z,32.47
2022-08-14T05:44:59.881Z,33.24
2022-08-14T05:47:29.073Z,33.22
2022-08-14T05:50:05.688Z,33.11
2022-08-14T05:52:44.695Z,33.34
2022-08-14T05:55:12.377Z,33.69
2022-08-14T05:57:50.288Z,33.37
2022-08-14T06:00:28.500Z,33.56
2022-08-14T06:03:00.041Z,33.69
2022-08-14T06:05:28.811Z,33.97
2022-08-14T06:08:00.243Z,34.11
2022-08-14T06:10:29.420Z,34.28
2022-08-14T06:12:58.273Z,34.35
2022-08-14T06:15:30.045Z,34.84
2022-08-14T06:17:59.097Z,34.64
2022-08-14T06:20:28.593Z,34.74
2022-08-14T06:22:58.181Z,34.73
2022-08-14T06:25:26.827Z,34.38
2022-08-14T06:27:55.759Z,34.26
2022-08-14T06:30:46.461Z,34.37
2022-08-14T06:33:16.619Z,34.63
2022-08-14T06:35:46.894Z,34.49
2022-08-14T06:38:21.563Z,34.55
2022-08-14T06:40:51.885Z,34.24
2022-08-14T06:43:21.249Z,34.77
2022-08-14T06:45:50.362Z,34.47
2022-08-14T06:48:24.093Z,34.49
2022-08-14T06:50:53.781Z,34.52
2022-08-14T06:53:21.815Z,34.66
2022-08-14T06:55:58.347Z,34.24
2022-08-14T06:58:31.497Z,34.25
2022-08-14T07:01:38.911Z,34.70
2022-08-14T07:04:25.167Z,34.23
2022-08-14T07:06:54.876Z,34.13
2022-08-14T07:09:23.491Z,34.00
2022-08-14T07:11:51.752Z,34.13
2022-08-14T07:14:19.293Z,33.92
2022-08-14T07:16:46.523Z,33.86
2022-08-14T07:19:17.537Z,33.82
2022-08-14T07:21:48.492Z,33.84
2022-08-14T07:24:21.717Z,33.73
2022-08-14T07:26:49.859Z,33.37
2022-08-14T07:29:17.534Z,33.73
2022-08-14T07:31:44.998Z,33.49
2022-08-14T07:34:31.849Z,33.21
2022-08-14T07:37:01.609Z,32.67
2022-08-14T07:39:29.009Z,32.57
2022-08-14T07:41:56.316Z,32.62
2022-08-14T07:44:32.351Z,32.53
2022-08-14T07:47:04.104Z,31.96
2022-08-14T07:49:34.187Z,31.66
2022-08-14T07:52:02.442Z,32.15
2022-08-14T07:54:31.594Z,31.82
2022-08-14T07:56:59.723Z,31.75
2022-08-14T07:59:42.534Z,31.65
2022-08-14T08:02:19.389Z,32.16
2022-08-14T08:04:59.398Z,31.70
2022-08-14T08:07:29.823Z,32.02
2022-08-14T08:10:01.054Z,31.45
2022-08-14T08:12:32.366Z,32.20
2022-08-14T08:15:05.998Z,32.44
2022-08-14T08:17:42.630Z,32.98
2022-08-14T08:20:27.122Z,33.13
2022-08-14T08:23:00.448Z,32.79
2022-08-14T08:25:40.080Z,33.56
2022-08-14T08:28:22.133Z,33.36
2022-08-14T08:31:00.043Z,33.28
2022-08-14T08:33:31.740Z,33.08
2022-08-14T08:36:01.720Z,33.01
2022-08-14T08:39:16.676Z,33.55
2022-08-14T08:41:16.832Z,35.44
2022-08-14T08:43:46.723Z,35.65
2022-08-14T08:46:21.486Z,36.10
2022-08-14T08:51:30.755Z,37.10
2022-08-14T08:54:06.196Z,37.74
2022-08-14T08:56:39.901Z,38.36
2022-08-14T08:59:31.698Z,38.93
2022-08-14T09:02:06.771Z,39.39
2022-08-14T09:04:45.489Z,39.24
2022-08-14T09:07:27.336Z,38.19
2022-08-14T09:09:58.655Z,38.18
2022-08-14T09:12:33.481Z,37.84
2022-08-14T09:15:02.576Z,37.32
2022-08-14T09:17:29.988Z,38.16
2022-08-14T09:19:57.713Z,37.91
2022-08-14T09:22:35.743Z,37.08
2022-08-14T09:25:07.126Z,36.83
2022-08-14T09:27:37.112Z,36.63
2022-08-14T09:30:12.633Z,36.72
2022-08-14T09:33:10.804Z,36.80
2022-08-14T09:35:45.794Z,36.63
2022-08-14T09:38:26.044Z,36.86
2022-08-14T09:41:00.939Z,36.81
2022-08-14T09:43:29.869Z,36.44
2022-08-14T09:46:02.495Z,36.32
2022-08-14T09:48:31.245Z,35.72
2022-08-14T09:54:18.181Z,35.34
2022-08-14T09:56:51.691Z,35.09
2022-08-14T09:59:28.284Z,35.06
2022-08-14T10:01:59.731Z,35.34
2022-08-14T10:04:33.818Z,34.54
2022-08-14T10:07:05.817Z,35.28
2022-08-14T10:09:35.228Z,36.08
2022-08-14T10:12:04.823Z,36.41
2022-08-14T10:14:36.579Z,36.16
2022-08-14T10:17:08.570Z,35.71
2022-08-14T10:19:48.091Z,36.05
2022-08-14T10:23:22.233Z,35.59
2022-08-14T10:25:14.338Z,35.63
2022-08-14T10:27:47.227Z,35.77
2022-08-14T10:30:22.362Z,36.30
2022-08-14T10:32:55.574Z,35.77
2022-08-14T10:35:23.353Z,35.38
2022-08-14T10:38:01.357Z,35.64
2022-08-14T10:40:37.530Z,35.54
2022-08-14T10:43:26.677Z,35.12
2022-08-14T10:45:59.931Z,35.12
2022-08-14T10:49:00.846Z,34.19
2022-08-14T10:51:34.267Z,34.74
2022-08-14T10:54:16.939Z,35.09
2022-08-14T10:57:18.791Z,35.14
2022-08-14T10:59:50.309Z,35.49
2022-08-14T11:02:35.804Z,34.90
2022-08-14T11:05:13.498Z,34.13
2022-08-14T11:07:56.476Z,33.62
2022-08-14T11:10:46.009Z,33.78
2022-08-14T11:13:23.918Z,34.53
2022-08-14T11:15:52.807Z,34.56
2022-08-14T11:18:32.269Z,34.05
2022-08-14T11:21:09.360Z,34.33
2022-08-14T11:23:43.846Z,34.23
2022-08-14T11:26:18.932Z,34.54
2022-08-14T11:28:50.167Z,34.26
2022-08-14T11:31:22.128Z,34.37
2022-08-14T11:33:57.864Z,33.37
2022-08-14T11:36:35.267Z,33.37
2022-08-14T11:39:33.548Z,34.26
2022-08-14T11:42:55.612Z,34.48
2022-08-14T11:44:53.739Z,34.29
2022-08-14T11:47:24.766Z,34.88
2022-08-14T11:49:52.315Z,35.24
2022-08-14T11:52:19.638Z,35.49
2022-08-14T11:54:58.214Z,35.50
2022-08-14T11:57:26.199Z,37.32
2022-08-14T12:00:08.391Z,37.74
2022-08-14T12:03:02.723Z,38.92
2022-08-14T12:05:39.915Z,39.18
2022-08-14T12:08:11.154Z,38.84
2022-08-14T12:10:43.306Z,39.33
2022-08-14T12:13:17.537Z,39.18
2022-08-14T12:15:49.632Z,39.07
2022-08-14T12:18:29.972Z,40.23
2022-08-14T12:20:59.947Z,40.46
2022-08-14T12:23:27.660Z,41.84
2022-08-14T12:26:12.125Z,41.63
2022-08-14T12:29:13.058Z,41.81
2022-08-14T12:31:47.418Z,41.70
2022-08-14T12:34:22.880Z,42.40
2022-08-14T12:37:08.050Z,42.52
2022-08-14T12:39:39.760Z,42.40
2022-08-14T12:42:09.209Z,43.20
2022-08-14T12:44:42.927Z,44.07
2022-08-14T12:47:15.275Z,44.25
2022-08-14T12:49:57.782Z,45.51
2022-08-14T12:52:45.200Z,45.14
2022-08-14T12:55:32.528Z,45.96
2022-08-14T12:58:35.072Z,45.60
2022-08-14T13:01:17.195Z,46.16
2022-08-14T13:03:51.683Z,46.92
2022-08-14T13:06:20.456Z,47.09
2022-08-14T13:08:53.051Z,47.01
2022-08-14T13:11:23.906Z,46.87
2022-08-14T13:13:53.783Z,46.68
2022-08-14T13:16:38.252Z,46.29
2022-08-14T13:19:12.097Z,47.01
2022-08-14T13:22:05.601Z,47.03
2022-08-14T13:24:33.943Z,46.55
2022-08-14T13:27:04.291Z,46.98
2022-08-14T13:29:36.940Z,47.44
2022-08-14T13:32:05.834Z,48.09
2022-08-14T13:34:33.944Z,48.73
2022-08-14T13:37:04.230Z,48.13
2022-08-14T13:39:32.679Z,48.32
2022-08-14T13:42:13.432Z,48.78
2022-08-14T13:44:42.867Z,48.75
2022-08-14T13:47:12.133Z,48.90
2022-08-14T13:49:57.205Z,50.24
2022-08-14T13:52:59.159Z,48.69
2022-08-14T13:55:16.010Z,48.77
2022-08-14T13:57:49.776Z,47.77
2022-08-14T14:00:35.628Z,47.65
2022-08-14T14:03:06.139Z,47.13
2022-08-14T14:05:53.151Z,46.76
2022-08-14T14:08:46.813Z,46.35
2022-08-14T14:11:11.373Z,45.86
2022-08-14T14:13:44.650Z,46.35
2022-08-14T14:16:15.050Z,45.27
2022-08-14T14:19:00.230Z,45.16
2022-08-14T14:21:31.510Z,44.58
2022-08-14T14:24:00.956Z,44.75
2022-08-14T14:26:29.480Z,44.42
2022-08-14T14:29:01.736Z,44.16
2022-08-14T14:31:31.211Z,43.94
2022-08-14T14:34:12.290Z,43.82
2022-08-14T14:36:52.420Z,43.47
2022-08-14T14:39:28.901Z,43.51
2022-08-14T14:41:59.432Z,43.79
2022-08-14T14:44:34.581Z,43.27
2022-08-14T14:47:01.983Z,43.61
2022-08-14T14:49:51.125Z,43.66
2022-08-14T14:52:26.781Z,44.42
2022-08-14T14:54:59.214Z,44.19
2022-08-14T14:57:35.247Z,44.30
2022-08-14T15:00:12.594Z,44.13
2022-08-14T15:02:43.139Z,43.67
2022-08-14T15:05:12.647Z,43.63
2022-08-14T15:07:40.381Z,42.51
2022-08-14T15:10:27.552Z,42.47
2022-08-14T15:13:00.548Z,42.81
2022-08-14T15:15:37.474Z,43.41
2022-08-14T15:18:36.916Z,44.73
2022-08-14T15:20:57.473Z,45.09
2022-08-14T15:23:25.367Z,46.14
2022-08-14T15:26:13.061Z,46.59
2022-08-14T15:29:02.914Z,48.25
2022-08-14T15:31:34.662Z,50.78
2022-08-14T15:34:43.216Z,51.37
2022-08-14T15:37:00.931Z,51.44
2022-08-14T15:39:35.490Z,51.41
2022-08-14T15:42:15.020Z,51.32
2022-08-14T15:44:56.906Z,53.18
2022-08-14T15:47:28.934Z,52.52
2022-08-14T15:50:03.002Z,52.54
2022-08-14T15:52:35.430Z,52.45
2022-08-14T15:55:09.159Z,52.76
2022-08-14T15:57:36.899Z,52.81
2022-08-14T16:00:44.236Z,52.22
2022-08-14T16:03:18.114Z,51.62
2022-08-14T16:05:52.896Z,52.25
2022-08-14T16:08:29.777Z,50.87
2022-08-14T16:11:03.628Z,51.53
2022-08-14T16:13:41.431Z,51.51
2022-08-14T16:16:49.435Z,50.39
2022-08-14T16:19:18.312Z,50.07
2022-08-14T16:22:02.060Z,49.49
2022-08-14T16:24:35.779Z,49.78
2022-08-14T16:27:05.372Z,50.33
2022-08-14T16:29:38.522Z,50.77
2022-08-14T16:32:32.572Z,51.05
2022-08-14T16:34:57.358Z,51.66
2022-08-14T16:37:33.924Z,51.65
2022-08-14T16:40:02.377Z,51.58
2022-08-14T16:42:38.925Z,51.53
2022-08-14T16:45:24.285Z,51.53
2022-08-14T16:47:51.706Z,51.94
2022-08-14T16:50:43.481Z,52.11
2022-08-14T16:53:09.606Z,52.35
2022-08-14T16:55:53.469Z,52.95
2022-08-14T16:58:30.278Z,53.67
2022-08-14T17:01:23.046Z,53.97
2022-08-14T17:03:56.684Z,53.75
2022-08-14T17:06:43.069Z,53.56
2022-08-14T17:09:23.849Z,52.96
2022-08-14T17:11:58.160Z,53.10
2022-08-14T17:14:28.432Z,52.08
2022-08-14T17:16:57.988Z,53.88
2022-08-14T17:19:25.788Z,55.30
2022-08-14T17:21:58.535Z,55.02
2022-08-14T17:24:56.206Z,56.71
2022-08-14T17:27:18.444Z,57.30
2022-08-14T17:29:56.760Z,57.50
2022-08-14T17:32:44.451Z,57.30
2022-08-14T17:35:16.423Z,57.29
2022-08-14T17:37:55.604Z,57.56
2022-08-14T17:40:25.918Z,57.03
2022-08-14T17:43:01.600Z,58.70
2022-08-14T17:45:41.275Z,58.58
2022-08-14T17:49:14.400Z,59.66
2022-08-14T17:51:23.806Z,60.29
2022-08-14T17:54:02.956Z,61.44
2022-08-14T17:56:32.596Z,62.76
2022-08-14T17:59:06.238Z,66.56
2022-08-14T18:01:37.322Z,66.39
2022-08-14T18:04:28.090Z,65.95
2022-08-14T18:06:57.779Z,65.55
2022-08-14T18:09:56.148Z,65.93
2022-08-14T18:12:36.672Z,65.69
2022-08-14T18:15:14.417Z,65.75
2022-08-14T18:17:52.561Z,65.61
2022-08-14T18:21:40.116Z,66.48
2022-08-14T18:23:13.654Z,66.69
2022-08-14T18:25:51.646Z,66.06
2022-08-14T18:28:51.494Z,66.74
2022-08-14T18:31:20.697Z,66.52
2022-08-14T18:33:59.669Z,67.59
2022-08-14T18:36:47.205Z,67.93
2022-08-14T18:39:29.729Z,68.21
2022-08-14T18:42:23.976Z,67.72
2022-08-14T18:44:54.550Z,67.96
2022-08-14T18:47:23.702Z,67.37
2022-08-14T18:49:52.841Z,68.29
2022-08-14T18:52:42.916Z,67.48
2022-08-14T18:55:20.665Z,66.99
2022-08-14T18:57:54.676Z,68.10
2022-08-14T19:00:51.388Z,68.58
2022-08-14T19:03:22.524Z,67.90
2022-08-14T19:05:50.880Z,67.72
2022-08-14T19:08:24.854Z,67.02
2022-08-14T19:11:03.985Z,66.99
2022-08-14T19:13:48.142Z,66.85
2022-08-14T19:16:22.881Z,66.71
2022-08-14T19:19:00.158Z,66.15
2022-08-14T19:21:34.364Z,66.54
2022-08-14T19:24:29.437Z,66.54
2022-08-14T19:27:24.467Z,67.28
2022-08-14T19:30:19.603Z,68.79
2022-08-14T19:32:52.354Z,68.49
2022-08-14T19:35:48.491Z,67.93
2022-08-14T19:38:46.422Z,68.21
2022-08-14T19:41:18.994Z,67.12
2022-08-14T19:43:56.727Z,66.78
2022-08-14T19:46:38.757Z,68.54
2022-08-14T19:49:23.200Z,69.33
2022-08-14T19:52:03.196Z,68.03
2022-08-14T19:54:32.445Z,68.15
2022-08-14T19:57:03.306Z,68.50
2022-08-14T19:59:36.776Z,68.03
2022-08-14T20:02:29.921Z,68.17
2022-08-14T20:04:59.152Z,68.11
2022-08-14T20:07:59.912Z,67.96
2022-08-14T20:11:07.095Z,68.09
2022-08-14T20:13:15.346Z,67.62
2022-08-14T20:15:51.258Z,67.49
2022-08-14T20:18:49.041Z,67.46
2022-08-14T20:21:13.690Z,67.36
2022-08-14T20:23:42.145Z,67.14
2022-08-14T20:26:30.549Z,66.71
2022-08-14T20:29:04.819Z,67.35
2022-08-14T20:31:37.228Z,67.76
2022-08-14T20:34:18.970Z,67.85
2022-08-14T20:37:09.880Z,68.15
2022-08-14T20:39:40.092Z,68.44
2022-08-14T20:42:32.222Z,68.40
2022-08-14T20:45:23.739Z,68.30
2022-08-14T20:48:01.353Z,68.57
2022-08-14T20:50:29.994Z,68.95
2022-08-14T20:53:06.088Z,69.10
2022-08-14T20:55:41.426Z,68.71
2022-08-14T20:58:43.990Z,68.07
2022-08-14T21:01:18.661Z,67.47
2022-08-14T21:03:57.325Z,67.55
2022-08-14T21:07:23.939Z,67.07
2022-08-14T21:10:03.356Z,67.16
2022-08-14T21:12:34.479Z,67.04
2022-08-14T21:15:00.880Z,67.02
2022-08-14T21:17:30.395Z,66.47
2022-08-14T21:19:57.949Z,65.98
2022-08-14T21:22:26.857Z,65.19
2022-08-14T21:25:01.483Z,65.61
2022-08-14T21:27:37.421Z,66.15
2022-08-14T21:30:08.478Z,66.17
2022-08-14T21:32:50.237Z,66.54
2022-08-14T21:35:25.990Z,67.91
2022-08-14T21:37:53.778Z,68.53
2022-08-14T21:40:42.383Z,68.53
2022-08-14T21:43:17.876Z,69.37
2022-08-14T21:45:54.063Z,69.54
2022-08-14T21:48:26.354Z,70.53
2022-08-14T21:51:01.136Z,70.21
2022-08-14T21:53:58.369Z,70.71
2022-08-14T21:56:37.272Z,70.55
2022-08-14T21:59:09.325Z,70.48
2022-08-14T22:02:00.277Z,70.76
2022-08-14T22:04:34.312Z,71.69
2022-08-14T22:07:10.138Z,72.10
2022-08-14T22:09:37.747Z,73.10
2022-08-14T22:12:58.069Z,73.89
2022-08-14T22:15:01.801Z,74.19
2022-08-14T22:17:32.347Z,73.54
2022-08-14T22:20:05.150Z,73.66
2022-08-14T22:22:32.565Z,75.84
2022-08-14T22:25:01.072Z,77.30
2022-08-14T22:27:32.439Z,77.04
2022-08-14T22:30:02.205Z,77.58
2022-08-14T22:32:56.751Z,77.42
2022-08-14T22:35:18.415Z,77.05
2022-08-14T22:37:46.005Z,76.50
2022-08-14T22:41:03.177Z,77.41
2022-08-14T22:43:21.009Z,77.40
2022-08-14T22:45:55.677Z,77.15
2022-08-14T22:48:23.498Z,76.99
2022-08-14T22:50:53.695Z,78.14
2022-08-14T22:53:22.033Z,78.13
2022-08-14T22:55:51.944Z,77.41
2022-08-14T22:58:31.410Z,76.83
2022-08-14T23:01:07.669Z,77.86
2022-08-14T23:03:39.732Z,77.69
2022-08-14T23:07:04.484Z,77.47
2022-08-14T23:09:35.463Z,77.68
2022-08-14T23:11:46.913Z,77.69
2022-08-14T23:14:23.966Z,77.61
2022-08-14T23:16:57.312Z,77.88
2022-08-14T23:19:33.662Z,78.06
2022-08-14T23:22:05.252Z,77.60
2022-08-14T23:24:34.271Z,77.38
2022-08-14T23:27:02.768Z,77.29
2022-08-14T23:29:37.787Z,77.01
2022-08-14T23:32:15.488Z,77.35
2022-08-14T23:34:48.247Z,77.12
2022-08-14T23:37:19.293Z,76.80
2022-08-14T23:39:54.510Z,76.37
2022-08-14T23:42:23.349Z,76.21
2022-08-14T23:45:08.307Z,76.95
2022-08-14T23:47:51.686Z,77.31
2022-08-14T23:50:34.374Z,76.34
2022-08-14T23:53:28.198Z,75.67
2022-08-14T23:56:14.736Z,74.64
2022-08-14T23:58:42.226Z,74.62
